Time;durP1;ratioP1;P1;durP2;ratioP2;P2;SDS_P1;SDS_P2;PMS_P1;PMS_P2;Temp;Humidity;BMP_temperature;BMP_pressure;BME280_temperature;BME280_humidity;BME280_pressure;Samples;Min_cycle;Max_cycle;Signal;HPM_P1;HPM_P2
2023/04/22 00:01:57;;;;;;;;;;;;;;;8.15;87.82;100761.78;5065181;28;1210;-74
2023/04/22 00:04:22;;;;;;;;;;;;;;;8.14;88.18;100766.13;5064395;28;1186;-76
2023/04/22 00:06:47;;;;;;;;;;;;;;;8.09;87.93;100757.88;5064457;28;1085;-74
2023/04/22 00:09:13;;;;;;;;;;;;;;;8.10;88.14;100758.69;5064511;28;1369;-75
2023/04/22 00:11:38;;;;;;;;;;;;;;;8.08;88.65;100755.38;5065676;28;1063;-74
2023/04/22 00:14:03;;;;;;;;;;;;;;;8.06;88.60;100757.25;5057069;28;1466;-74
2023/04/22 00:16:28;;;;;;;;;;;;;;;8.02;88.22;100745.50;5061443;28;1124;-75
2023/04/22 00:18:54;;;;;;;;;;;;;;;7.98;88.37;100748.31;5062103;28;1987;-75
2023/04/22 00:21:19;;;;;;;;;;;;;;;7.95;88.85;100751.09;5062289;28;1155;-74
2023/04/22 00:23:44;;;;;;;;;;;;;;;7.92;88.71;100738.44;5063973;28;1245;-76
2023/04/22 00:26:10;;;;;;;;;;;;;;;7.88;88.05;100744.72;5064975;28;1044;-75
2023/04/22 00:28:35;;;;;;;;;;;;;;;7.84;88.76;100745.88;5067771;28;1154;-75
2023/04/22 00:31:02;;;;;;;;;;;;;;;7.81;88.97;100751.28;5058366;28;1376;-75
2023/04/22 00:33:27;;;;;;;;;;;;;;;7.77;88.73;100742.09;5065545;28;1291;-77
2023/04/22 00:35:53;;;;;;;;;;;;;;;7.77;88.46;100752.41;5060179;28;1504;-74
2023/04/22 00:38:18;;;;;;;;;;;;;;;7.71;88.95;100742.53;5065202;28;1917;-74
2023/04/22 00:40:44;;;;;;;;;;;;;;;7.67;88.46;100756.56;5075852;28;1191;-74
2023/04/22 00:43:10;;;;;;;;;;;;;;;7.63;88.93;100757.75;5061586;28;1262;-75
2023/04/22 00:45:36;;;;;;;;;;;;;;;7.60;88.94;100756.19;5074534;28;1294;-76
2023/04/22 00:48:01;;;;;;;;;;;;;;;7.58;89.67;100757.25;5078599;28;1267;-74
2023/04/22 00:50:26;;;;;;;;;;;;;;;7.59;89.81;100753.72;5063389;28;1238;-75
2023/04/22 00:52:51;;;;;;;;;;;;;;;7.60;90.12;100756.19;5063708;28;1418;-75
2023/04/22 00:55:17;;;;;;;;;;;;;;;7.63;89.58;100753.41;5063991;28;2001;-77
2023/04/22 00:57:42;;;;;;;;;;;;;;;7.65;89.73;100753.28;5064153;28;1945;-75
2023/04/22 01:00:09;;;;;;;;;;;;;;;7.68;89.79;100753.91;5065832;28;1410;-74
2023/04/22 01:02:35;;;;;;;;;;;;;;;7.70;90.02;100751.22;5065437;28;1413;-74
2023/04/22 01:05:00;;;;;;;;;;;;;;;7.70;90.38;100752.03;5058832;28;1170;-76
2023/04/22 01:07:26;;;;;;;;;;;;;;;7.69;89.64;100749.56;5063417;28;1147;-75
2023/04/22 01:09:51;;;;;;;;;;;;;;;7.67;89.92;100746.25;5063640;28;1394;-75
2023/04/22 01:12:16;;;;;;;;;;;;;;;7.67;89.79;100756.56;5058396;28;1183;-74
2023/04/22 01:14:41;;;;;;;;;;;;;;;7.65;89.72;100753.28;5058720;28;1093;-74
2023/04/22 01:17:08;;;;;;;;;;;;;;;7.61;89.89;100746.69;5066014;28;1961;-74
2023/04/22 01:19:34;;;;;;;;;;;;;;;7.60;90.25;100745.03;5065841;28;1473;-77
2023/04/22 01:22:00;;;;;;;;;;;;;;;7.59;90.57;100743.41;5064735;28;1163;-75
2023/04/22 01:24:26;;;;;;;;;;;;;;;7.58;90.31;100739.19;5074123;28;1230;-75
2023/04/22 01:26:51;;;;;;;;;;;;;;;7.55;90.09;100736.78;5069987;28;1144;-74
2023/04/22 01:29:17;;;;;;;;;;;;;;;7.50;90.23;100742.28;5064531;28;1120;-74
2023/04/22 01:31:42;;;;;;;;;;;;;;;7.48;90.23;100730.41;5069343;28;1492;-74
2023/04/22 01:34:07;;;;;;;;;;;;;;;7.45;90.53;100736.59;5063429;28;1556;-74
2023/04/22 01:36:32;;;;;;;;;;;;;;;7.42;90.96;100736.84;5062097;28;1328;-74
2023/04/22 01:38:58;;;;;;;;;;;;;;;7.35;90.85;100736.44;5060538;28;1981;-77
2023/04/22 01:41:24;;;;;;;;;;;;;;;7.32;91.06;100736.63;5061832;28;1807;-74
2023/04/22 01:43:50;;;;;;;;;;;;;;;7.30;90.41;100730.78;5062613;28;1175;-77
2023/04/22 01:46:16;;;;;;;;;;;;;;;7.29;91.25;100725.72;5065833;28;1371;-77
2023/04/22 01:48:41;;;;;;;;;;;;;;;7.24;90.30;100728.63;5075232;28;1266;-77
2023/04/22 01:51:06;;;;;;;;;;;;;;;7.22;90.67;100735.63;5068104;28;1171;-77
2023/04/22 01:53:31;;;;;;;;;;;;;;;7.21;90.43;100733.16;5059102;28;1558;-75
2023/04/22 01:55:56;;;;;;;;;;;;;;;7.18;90.93;100739.38;5077920;28;1206;-74
2023/04/22 01:58:22;;;;;;;;;;;;;;;7.15;90.61;100742.13;5067678;28;1961;-75
2023/04/22 02:00:47;;;;;;;;;;;;;;;7.14;90.63;100737.91;5065441;28;1175;-76
2023/04/22 02:03:12;;;;;;;;;;;;;;;7.13;90.76;100731.13;5067943;28;1171;-75
2023/04/22 02:05:38;;;;;;;;;;;;;;;7.09;91.08;100732.25;5060738;28;1224;-75
2023/04/22 02:08:03;;;;;;;;;;;;;;;7.11;91.30;100732.94;5062336;28;1433;-75
2023/04/22 02:10:29;;;;;;;;;;;;;;;7.10;91.02;100731.31;5066121;28;1489;-75
2023/04/22 02:12:54;;;;;;;;;;;;;;;7.10;91.38;100737.28;5076253;28;1147;-75
2023/04/22 02:15:20;;;;;;;;;;;;;;;7.11;91.25;100732.94;5080211;28;1210;-75
2023/04/22 02:17:46;;;;;;;;;;;;;;;7.13;91.70;100731.13;5069247;28;1961;-77
2023/04/22 02:20:11;;;;;;;;;;;;;;;7.14;92.24;100719.84;5066057;28;1199;-75
2023/04/22 02:22:37;;;;;;;;;;;;;;;7.17;92.26;100719.66;5064923;28;1159;-75
2023/04/22 02:25:03;;;;;;;;;;;;;;;7.19;91.91;100725.53;5062974;28;1170;-74
2023/04/22 02:27:28;;;;;;;;;;;;;;;7.19;91.87;100720.38;5053314;28;1410;-74
2023/04/22 02:29:54;;;;;;;;;;;;;;;7.21;91.99;100712.53;5067640;28;1355;-75
2023/04/22 02:32:19;;;;;;;;;;;;;;;7.21;92.38;100708.19;5067151;28;1191;-76
2023/04/22 02:34:46;;;;;;;;;;;;;;;7.22;92.84;100714.97;5070517;28;1322;-74
2023/04/22 02:37:11;;;;;;;;;;;;;;;7.22;92.76;100709.81;5056523;28;1955;-74
2023/04/22 02:39:36;;;;;;;;;;;;;;;7.21;92.59;100712.53;5066250;28;1416;-75
2023/04/22 02:42:01;;;;;;;;;;;;;;;7.22;92.71;100704.66;5066004;28;1437;-74
2023/04/22 02:44:27;;;;;;;;;;;;;;;7.22;92.89;100704.66;5062762;28;1080;-74
2023/04/22 02:46:52;;;;;;;;;;;;;;;7.21;92.55;100704.78;5060488;28;1115;-74
2023/04/22 02:49:17;;;;;;;;;;;;;;;7.21;92.93;100708.19;5064073;28;1326;-75
2023/04/22 02:51:42;;;;;;;;;;;;;;;7.22;92.71;100702.09;5063417;28;1115;-75
2023/04/22 02:54:07;;;;;;;;;;;;;;;7.24;93.20;100704.59;5064163;28;1175;-74
2023/04/22 02:56:33;;;;;;;;;;;;;;;7.24;93.19;100697.66;5065370;28;2194;-74
2023/04/22 02:58:58;;;;;;;;;;;;;;;7.24;92.81;100700.25;5055400;28;1976;-74
2023/04/22 03:01:23;;;;;;;;;;;;;;;7.24;92.70;100710.56;5066594;28;1208;-75
2023/04/22 03:03:48;;;;;;;;;;;;;;;7.24;93.58;100702.00;5059899;28;1167;-74
2023/04/22 03:06:13;;;;;;;;;;;;;;;7.22;93.61;100691.78;5074440;28;1316;-74
2023/04/22 03:08:39;;;;;;;;;;;;;;;7.21;93.30;100695.28;5060345;28;1167;-75
2023/04/22 03:11:04;;;;;;;;;;;;;;;7.21;92.97;100695.28;5061403;28;1460;-75
2023/04/22 03:13:29;;;;;;;;;;;;;;;7.19;93.08;100690.25;5059994;28;1211;-74
2023/04/22 03:15:54;;;;;;;;;;;;;;;7.19;93.49;100689.41;5067832;28;1128;-74
2023/04/22 03:18:20;;;;;;;;;;;;;;;7.18;93.50;100687.78;5062238;28;1967;-75
2023/04/22 03:20:45;;;;;;;;;;;;;;;7.16;93.44;100695.59;5061876;28;1437;-74
2023/04/22 03:23:10;;;;;;;;;;;;;;;7.16;93.40;100684.47;5066843;28;1203;-74
2023/04/22 03:25:35;;;;;;;;;;;;;;;7.16;93.95;100687.03;5067497;28;1142;-74
2023/04/22 03:28:01;;;;;;;;;;;;;;;7.15;93.55;100687.97;5064776;28;1380;-75
2023/04/22 03:30:26;;;;;;;;;;;;;;;7.15;93.62;100682.81;5065085;28;1152;-75
2023/04/22 03:32:52;;;;;;;;;;;;;;;7.16;94.25;100689.63;5060262;28;1191;-74
2023/04/22 03:35:17;;;;;;;;;;;;;;;7.16;94.33;100684.47;5068843;28;1182;-74
2023/04/22 03:37:43;;;;;;;;;;;;;;;7.15;94.61;100678.47;5063165;28;1959;-76
2023/04/22 03:40:08;;;;;;;;;;;;;;;7.16;94.53;100674.13;5071189;28;1409;-74
2023/04/22 03:42:33;;;;;;;;;;;;;;;7.14;93.75;100668.28;5067097;28;1170;-74
2023/04/22 03:44:59;;;;;;;;;;;;;;;7.14;94.59;100671.69;5063597;28;1580;-74
2023/04/22 03:47:24;;;;;;;;;;;;;;;7.15;94.42;100677.66;5059991;28;1572;-74
2023/04/22 03:49:49;;;;;;;;;;;;;;;7.15;94.37;100672.50;5059328;28;1676;-74
2023/04/22 03:52:15;;;;;;;;;;;;;;;7.15;94.03;100673.31;5054130;28;1001;-76
2023/04/22 03:54:40;;;;;;;;;;;;;;;7.13;94.09;100675.19;5072072;28;1176;-75
2023/04/22 03:57:05;;;;;;;;;;;;;;;7.13;94.08;100669.22;5060435;28;1147;-74
2023/04/22 03:59:31;;;;;;;;;;;;;;;7.12;94.29;100667.56;5058801;28;1893;-75
2023/04/22 04:01:56;;;;;;;;;;;;;;;7.08;95.06;100655.81;5070220;28;1477;-74
2023/04/22 04:04:22;;;;;;;;;;;;;;;7.08;95.10;100655.81;5065294;28;1179;-76
2023/04/22 04:06:47;;;;;;;;;;;;;;;7.08;94.42;100660.97;5074477;28;1297;-76
2023/04/22 04:09:12;;;;;;;;;;;;;;;7.09;95.01;100657.47;5064128;28;1179;-75
2023/04/22 04:11:38;;;;;;;;;;;;;;;7.09;95.24;100652.28;5057280;28;1137;-77
2023/04/22 04:14:03;;;;;;;;;;;;;;;7.09;94.74;100644.56;5062594;28;1210;-74
2023/04/22 04:16:28;;;;;;;;;;;;;;;7.11;95.10;100645.25;5063417;28;1096;-74
2023/04/22 04:18:53;;;;;;;;;;;;;;;7.11;94.87;100642.69;5064836;28;1898;-76
2023/04/22 04:21:19;;;;;;;;;;;;;;;7.08;94.80;100646.31;5063565;28;1146;-75
2023/04/22 04:23:45;;;;;;;;;;;;;;;7.07;95.33;100647.25;5073949;28;1275;-75
2023/04/22 04:26:10;;;;;;;;;;;;;;;7.06;95.34;100640.44;5060782;28;1144;-74
2023/04/22 04:28:35;;;;;;;;;;;;;;;7.04;94.92;100638.91;5062548;28;1124;-74
2023/04/22 04:31:04;;;;;;;;;;;;;;;7.05;95.58;100636.19;5062150;28;1094;-75
2023/04/22 04:33:31;;;;;;;;;;;;;;;7.06;95.05;100642.22;5069198;28;1328;-75
2023/04/22 04:35:57;;;;;;;;;;;;;;;7.05;95.39;100640.53;5066120;28;1243;-74
2023/04/22 04:38:23;;;;;;;;;;;;;;;7.05;95.07;100650.84;5061228;28;1902;-75
2023/04/22 04:40:49;;;;;;;;;;;;;;;7.06;95.98;100637.06;5061323;28;1159;-73
2023/04/22 04:43:14;;;;;;;;;;;;;;;7.05;95.54;100630.22;5061176;28;1246;-75
2023/04/22 04:45:45;;;;;;;;;;;;;;;7.06;95.69;100624.97;5057396;28;1172;-75
2023/04/22 04:48:11;;;;;;;;;;;;;;;7.06;96.25;100632.72;5058977;28;1266;-74
2023/04/22 04:50:36;;;;;;;;;;;;;;;7.09;96.57;100634.25;5064982;28;1410;-74
2023/04/22 04:53:02;;;;;;;;;;;;;;;7.09;96.00;100631.66;5067598;28;1333;-74
2023/04/22 04:55:27;;;;;;;;;;;;;;;7.09;96.24;100626.50;5059569;28;1083;-74
2023/04/22 04:57:52;;;;;;;;;;;;;;;7.07;95.24;100629.19;5061003;28;1910;-74
2023/04/22 05:00:17;;;;;;;;;;;;;;;7.08;96.19;100630.03;5062570;28;1147;-74
2023/04/22 05:02:43;;;;;;;;;;;;;;;7.11;95.55;100645.25;5069391;28;1081;-74
2023/04/22 05:05:09;;;;;;;;;;;;;;;7.12;96.33;100637.44;5076479;28;2029;-77
2023/04/22 05:07:34;;;;;;;;;;;;;;;7.16;95.80;100643.19;5066446;28;1026;-76
2023/04/22 05:09:59;;;;;;;;;;;;;;;7.18;96.23;100641.34;5083481;28;1198;-74
2023/04/22 05:12:25;;;;;;;;;;;;;;;7.21;96.28;100635.97;5066583;28;1096;-74
2023/04/22 05:14:50;;;;;;;;;;;;;;;7.24;96.48;100640.09;5071964;28;1162;-75
2023/04/22 05:17:15;;;;;;;;;;;;;;;7.25;96.66;100642.56;5068897;28;1236;-75
2023/04/22 05:19:41;;;;;;;;;;;;;;;7.25;97.06;100637.41;5072325;28;1942;-75
2023/04/22 05:22:06;;;;;;;;;;;;;;;7.28;96.45;100641.50;5064107;28;1339;-75
2023/04/22 05:24:31;;;;;;;;;;;;;;;7.29;96.69;100644.00;5075735;28;1180;-74
2023/04/22 05:26:57;;;;;;;;;;;;;;;7.31;97.26;100652.44;5066955;28;1481;-75
2023/04/22 05:29:22;;;;;;;;;;;;;;;7.32;96.96;100648.09;5067326;28;1140;-74
2023/04/22 05:31:47;;;;;;;;;;;;;;;7.33;97.00;100639.44;5064332;28;1320;-76
2023/04/22 05:34:13;;;;;;;;;;;;;;;7.34;97.67;100641.91;5067796;28;1576;-74
2023/04/22 05:36:38;;;;;;;;;;;;;;;7.36;97.83;100629.72;5076665;28;1544;-78
2023/04/22 05:39:03;;;;;;;;;;;;;;;7.37;97.60;100631.38;5063901;28;1893;-75
2023/04/22 05:41:28;;;;;;;;;;;;;;;7.38;97.15;100632.19;5068719;28;1280;-74
2023/04/22 05:43:54;;;;;;;;;;;;;;;7.37;96.93;100626.22;5059340;28;1168;-75
2023/04/22 05:46:19;;;;;;;;;;;;;;;7.37;96.89;100630.53;5073922;28;1230;-76
2023/04/22 05:48:44;;;;;;;;;;;;;;;7.35;96.67;100628.09;5063438;28;1266;-75
2023/04/22 05:51:09;;;;;;;;;;;;;;;7.37;97.41;100633.94;5061372;28;1143;-74
2023/04/22 05:53:35;;;;;;;;;;;;;;;7.37;97.63;100641.69;5066972;28;1184;-75
2023/04/22 05:56:00;;;;;;;;;;;;;;;7.40;97.00;100636.31;5060849;28;1188;-75
2023/04/22 05:58:25;;;;;;;;;;;;;;;7.44;97.63;100635.16;5065599;28;1894;-74
2023/04/22 06:00:50;;;;;;;;;;;;;;;7.48;97.50;100637.53;5064091;28;1157;-75
2023/04/22 06:03:15;;;;;;;;;;;;;;;7.53;98.04;100641.41;5056860;28;1292;-74
2023/04/22 06:05:42;;;;;;;;;;;;;;;7.56;97.59;100630.03;5056510;28;988;-74
2023/04/22 06:08:07;;;;;;;;;;;;;;;7.60;98.45;100636.63;5066486;28;1305;-74
2023/04/22 06:10:32;;;;;;;;;;;;;;;7.63;98.25;100641.59;5061794;28;1373;-74
2023/04/22 06:12:57;;;;;;;;;;;;;;;7.64;98.34;100638.06;5076924;28;1468;-76
2023/04/22 06:15:24;;;;;;;;;;;;;;;7.67;98.71;100632.66;5059779;28;1206;-74
2023/04/22 06:17:49;;;;;;;;;;;;;;;7.63;98.28;100620.94;5064418;28;1953;-74
2023/04/22 06:20:14;;;;;;;;;;;;;;;7.70;98.46;100619.56;5063124;28;1315;-74
2023/04/22 06:22:40;;;;;;;;;;;;;;;7.74;98.06;100628.69;5063548;28;1177;-76
2023/04/22 06:25:05;;;;;;;;;;;;;;;7.79;98.42;100623.22;5061338;28;1305;-74
2023/04/22 06:27:30;;;;;;;;;;;;;;;7.84;98.85;100619.34;5064438;28;1297;-74
2023/04/22 06:29:55;;;;;;;;;;;;;;;7.90;100.00;100608.56;5068793;28;1193;-76
2023/04/22 06:32:21;;;;;;;;;;;;;;;7.96;100.00;100613.28;5067947;28;1159;-74
2023/04/22 06:34:46;;;;;;;;;;;;;;;8.04;100.00;100605.00;5065390;28;1176;-75
2023/04/22 06:37:11;;;;;;;;;;;;;;;8.12;100.00;100604.41;5064265;28;1192;-75
2023/04/22 06:39:36;;;;;;;;;;;;;;;8.20;99.85;100604.63;5065114;28;1955;-76
2023/04/22 06:42:02;;;;;;;;;;;;;;;8.30;100.00;100603.03;5067747;28;1266;-76
2023/04/22 06:44:27;;;;;;;;;;;;;;;8.38;100.00;100598.16;5075331;28;1276;-75
2023/04/22 06:46:53;;;;;;;;;;;;;;;8.51;100.00;100609.19;5057533;28;1002;-77
2023/04/22 06:49:18;;;;;;;;;;;;;;;8.64;100.00;100608.25;5064794;28;1154;-76
2023/04/22 06:51:43;;;;;;;;;;;;;;;8.73;100.00;100607.53;5063674;28;1414;-75
2023/04/22 06:54:08;;;;;;;;;;;;;;;8.82;100.00;100616.34;5072033;28;1278;-75
2023/04/22 06:56:34;;;;;;;;;;;;;;;8.89;100.00;100607.16;5075082;28;1314;-75
2023/04/22 06:59:00;;;;;;;;;;;;;;;8.97;100.00;100600.44;5061118;28;2005;-76
2023/04/22 07:01:25;;;;;;;;;;;;;;;9.08;100.00;100598.78;5057986;28;1243;-76
2023/04/22 07:03:50;;;;;;;;;;;;;;;9.20;100.00;100587.47;5063987;28;1187;-75
2023/04/22 07:06:15;;;;;;;;;;;;;;;9.32;100.00;100595.06;5062524;28;1074;-76
2023/04/22 07:08:41;;;;;;;;;;;;;;;9.45;100.00;100589.72;5065209;28;1321;-76
2023/04/22 07:11:06;;;;;;;;;;;;;;;9.56;100.00;100592.28;5066853;28;1272;-77
2023/04/22 07:13:33;;;;;;;;;;;;;;;9.65;100.00;100584.72;5061761;28;1153;-75
2023/04/22 07:15:58;;;;;;;;;;;;;;;9.75;100.00;100590.78;5074662;28;1446;-74
2023/04/22 07:18:24;;;;;;;;;;;;;;;9.86;99.95;100582.94;5058992;28;1909;-74
2023/04/22 07:20:49;;;;;;;;;;;;;;;9.94;99.55;100580.56;5070325;28;1368;-75
2023/04/22 07:23:14;;;;;;;;;;;;;;;10.03;100.00;100582.34;5062451;28;1117;-78
2023/04/22 07:25:40;;;;;;;;;;;;;;;10.15;99.98;100592.66;5065461;28;1409;-77
2023/04/22 07:28:05;;;;;;;;;;;;;;;10.23;99.62;100596.28;5062523;28;1461;-77
2023/04/22 07:30:30;;;;;;;;;;;;;;;10.29;99.27;100594.97;5060619;28;1120;-76
2023/04/22 07:32:55;;;;;;;;;;;;;;;10.33;99.00;100593.75;5056270;28;1190;-75
2023/04/22 07:35:21;;;;;;;;;;;;;;;10.38;99.13;100591.59;5065514;28;1012;-76
2023/04/22 07:37:46;;;;;;;;;;;;;;;10.47;98.93;100588.22;5062270;28;1943;-76
2023/04/22 07:40:12;;;;;;;;;;;;;;;10.57;99.12;100583.91;5065920;28;1473;-75
2023/04/22 07:42:38;;;;;;;;;;;;;;;10.68;99.30;100585.56;5066059;28;1322;-76
2023/04/22 07:45:04;;;;;;;;;;;;;;;10.80;99.91;100583.69;5059948;28;1149;-76
2023/04/22 07:47:29;;;;;;;;;;;;;;;10.86;98.60;100583.16;5066163;28;1285;-75
2023/04/22 07:49:54;;;;;;;;;;;;;;;10.94;98.83;100580.72;5060974;28;1621;-76
2023/04/22 07:52:19;;;;;;;;;;;;;;;11.04;98.73;100588.53;5059453;28;1087;-77
2023/04/22 07:54:45;;;;;;;;;;;;;;;11.15;97.70;100593.59;5064457;28;1636;-77
2023/04/22 07:57:10;;;;;;;;;;;;;;;11.22;97.90;100589.50;5061649;28;1207;-78
2023/04/22 07:59:35;;;;;;;;;;;;;;;11.34;98.06;100592.78;5059034;28;1886;-77
2023/04/22 08:02:01;;;;;;;;;;;;;;;11.46;97.93;100591.69;5065593;28;1212;-76
2023/04/22 08:04:26;;;;;;;;;;;;;;;11.55;96.70;100590.06;5065276;28;1275;-76
2023/04/22 08:06:51;;;;;;;;;;;;;;;11.63;96.75;100593.63;5062170;28;1107;-76
2023/04/22 08:09:16;;;;;;;;;;;;;;;11.77;96.13;100588.97;5064013;28;1139;-75
2023/04/22 08:11:41;;;;;;;;;;;;;;;11.88;96.28;100570.66;5059502;28;1321;-76
2023/04/22 08:14:07;;;;;;;;;;;;;;;12.00;96.52;100563.53;5063412;28;1346;-76
2023/04/22 08:16:32;;;;;;;;;;;;;;;12.08;95.78;100551.44;5062255;28;1293;-76
2023/04/22 08:18:57;;;;;;;;;;;;;;;12.15;95.39;100547.31;5064961;28;1947;-77
2023/04/22 08:21:22;;;;;;;;;;;;;;;12.23;94.69;100549.22;5064384;28;1096;-76
2023/04/22 08:23:47;;;;;;;;;;;;;;;12.34;95.38;100546.44;5066713;28;1354;-77
2023/04/22 08:26:15;;;;;;;;;;;;;;;12.43;94.19;100549.94;5061826;28;1099;-76
2023/04/22 08:28:41;;;;;;;;;;;;;;;12.48;93.98;100542.53;5061705;28;1239;-77
2023/04/22 08:31:08;;;;;;;;;;;;;;;12.57;93.32;100551.28;5065690;28;1199;-76
2023/04/22 08:33:33;;;;;;;;;;;;;;;12.66;93.13;100551.19;5065060;28;1311;-76
2023/04/22 08:35:58;;;;;;;;;;;;;;;12.74;93.14;100546.09;5060693;28;1079;-77
2023/04/22 08:38:23;;;;;;;;;;;;;;;12.84;93.30;100550.41;5061156;28;1965;-76
2023/04/22 08:40:49;;;;;;;;;;;;;;;12.91;93.07;100543.69;5058951;28;1148;-76
2023/04/22 08:43:14;;;;;;;;;;;;;;;12.97;92.32;100549.13;5061462;28;1146;-76
2023/04/22 08:45:40;;;;;;;;;;;;;;;13.08;92.46;100555.91;5064311;28;1131;-76
2023/04/22 08:48:07;;;;;;;;;;;;;;;13.21;92.24;100545.94;5075595;28;1340;-76
2023/04/22 08:50:33;;;;;;;;;;;;;;;13.36;92.13;100542.81;5062217;28;1942;-76
2023/04/22 08:52:58;;;;;;;;;;;;;;;13.44;91.13;100535.06;5062389;28;1115;-76
2023/04/22 08:55:23;;;;;;;;;;;;;;;13.51;90.96;100536.09;5058583;28;1159;-77
2023/04/22 08:57:49;;;;;;;;;;;;;;;13.61;90.79;100536.03;5059605;28;1890;-77
2023/04/22 09:00:15;;;;;;;;;;;;;;;13.74;90.68;100533.81;5061566;28;1167;-76
2023/04/22 09:02:43;;;;;;;;;;;;;;;13.86;90.30;100529.16;5058684;28;1259;-77
2023/04/22 09:05:09;;;;;;;;;;;;;;;13.96;88.97;100514.25;5059807;28;1133;-76
2023/04/22 09:07:35;;;;;;;;;;;;;;;14.05;88.49;100508.94;5069526;28;1420;-79
2023/04/22 09:10:00;;;;;;;;;;;;;;;14.10;87.05;100495.41;5057690;28;1262;-77
2023/04/22 09:12:26;;;;;;;;;;;;;;;14.16;87.94;100499.19;5063930;28;1147;-77
2023/04/22 09:14:51;;;;;;;;;;;;;;;14.20;88.15;100496.09;5059874;28;1166;-76
2023/04/22 09:17:17;;;;;;;;;;;;;;;14.30;88.19;100496.81;5065714;28;1429;-76
2023/04/22 09:19:43;;;;;;;;;;;;;;;14.41;87.16;100497.50;5065273;28;1976;-76
2023/04/22 09:22:14;;;;;;;;;;;;;;;14.45;86.47;100489.22;5065675;28;1170;-77
2023/04/22 09:24:48;;;;;;;;;;;;;;;14.52;87.31;100489.41;5063707;28;1255;-76
2023/04/22 09:27:15;;;;;;;;;;;;;;;14.62;86.76;100482.25;5069747;28;1173;-76
2023/04/22 09:29:46;;;;;;;;;;;;;;;14.71;85.87;100478.69;5061698;28;1103;-76
2023/04/22 09:32:11;;;;;;;;;;;;;;;14.79;85.46;100478.69;5064805;28;1236;-77
2023/04/22 09:34:56;;;;;;;;;;;;;;;14.84;83.57;100492.06;5063895;28;1565;-76
2023/04/22 09:37:24;;;;;;;;;;;;;;;14.88;83.73;100485.56;5063237;28;1299;-76
2023/04/22 09:39:50;;;;;;;;;;;;;;;14.91;83.06;100483.59;5067267;28;1914;-76
2023/04/22 09:42:16;;;;;;;;;;;;;;;14.92;81.37;100490.47;5055168;28;1002;-76
2023/04/22 09:44:42;;;;;;;;;;;;;;;15.01;84.02;100479.84;5067698;28;1160;-76
2023/04/22 09:47:09;;;;;;;;;;;;;;;15.04;83.72;100478.72;5065654;28;1163;-76
2023/04/22 09:49:40;;;;;;;;;;;;;;;15.16;83.70;100482.66;5060811;28;1165;-77
2023/04/22 09:52:05;;;;;;;;;;;;;;;15.24;82.68;100482.63;5062006;28;1183;-76
2023/04/22 09:54:30;;;;;;;;;;;;;;;15.31;82.97;100486.25;5058582;28;1172;-77
2023/04/22 09:56:56;;;;;;;;;;;;;;;15.39;80.74;100482.81;5068451;28;1402;-76
2023/04/22 09:59:28;;;;;;;;;;;;;;;15.44;80.89;100475.28;5065598;28;1901;-75
2023/04/22 10:01:59;;;;;;;;;;;;;;;15.54;81.69;100469.88;5053527;28;1080;-76
2023/04/22 10:04:24;;;;;;;;;;;;;;;15.65;80.54;100472.16;5067822;28;1187;-77
2023/04/22 10:06:50;;;;;;;;;;;;;;;15.75;80.96;100480.66;5063421;28;1162;-75
2023/04/22 10:09:17;;;;;;;;;;;;;;;15.82;79.74;100479.00;5057643;28;1457;-82
2023/04/22 10:11:42;;;;;;;;;;;;;;;15.87;79.60;100481.09;5064660;28;1101;-80
2023/04/22 10:14:09;;;;;;;;;;;;;;;16.00;79.54;100480.56;5076035;28;1479;-79
2023/04/22 10:16:37;;;;;;;;;;;;;;;16.11;78.83;100478.41;5077911;28;1345;-78
2023/04/22 10:19:04;;;;;;;;;;;;;;;16.22;78.03;100479.84;5064972;28;1985;-80
2023/04/22 10:21:30;;;;;;;;;;;;;;;16.29;77.90;100486.03;5069721;28;1396;-77
2023/04/22 10:23:57;;;;;;;;;;;;;;;16.32;77.34;100484.88;5060066;28;1191;-79
2023/04/22 10:26:40;;;;;;;;;;;;;;;16.39;76.96;100491.03;5057917;28;1182;-77
2023/04/22 10:29:06;;;;;;;;;;;;;;;16.53;77.56;100484.28;5058710;28;1128;-76
2023/04/22 10:31:31;;;;;;;;;;;;;;;16.65;77.08;100485.53;5064197;28;1203;-75
2023/04/22 10:34:13;;;;;;;;;;;;;;;16.73;76.46;100494.16;5067666;28;1477;-74
2023/04/22 10:36:55;;;;;;;;;;;;;;;16.74;74.58;100489.72;5058341;28;1136;-75
2023/04/22 10:39:20;;;;;;;;;;;;;;;16.76;75.03;100485.16;5063503;28;1898;-76
2023/04/22 10:41:50;;;;;;;;;;;;;;;16.71;71.85;100480.44;5061576;28;1122;-78
2023/04/22 10:44:15;;;;;;;;;;;;;;;16.71;74.14;100484.84;5058884;28;1296;-75
2023/04/22 10:46:41;;;;;;;;;;;;;;;16.72;73.47;100486.47;5064741;28;1353;-75
2023/04/22 10:49:07;;;;;;;;;;;;;;;16.73;74.25;100499.41;5065546;28;1215;-76
2023/04/22 10:51:42;;;;;;;;;;;;;;;16.75;72.68;100504.47;5059946;28;1243;-75
2023/04/22 10:54:30;;;;;;;;;;;;;;;16.75;74.01;100491.38;5062673;28;1159;-75
2023/04/22 10:57:05;;;;;;;;;;;;;;;16.81;73.68;100490.69;5062320;28;1168;-74
2023/04/22 10:59:31;;;;;;;;;;;;;;;16.82;72.71;100492.31;5065725;28;1969;-76
2023/04/22 11:02:04;;;;;;;;;;;;;;;16.83;73.85;100488.69;5066075;28;1734;-76
2023/04/22 11:04:29;;;;;;;;;;;;;;;16.86;73.40;100488.38;5071244;28;1303;-75
2023/04/22 11:07:16;;;;;;;;;;;;;;;16.88;72.89;100491.63;5058010;28;1188;-74
2023/04/22 11:09:43;;;;;;;;;;;;;;;16.89;71.69;100488.00;5062762;28;1218;-75
2023/04/22 11:12:27;;;;;;;;;;;;;;;16.94;72.58;100490.09;5066805;28;1103;-74
2023/04/22 11:14:52;;;;;;;;;;;;;;;16.96;72.54;100491.56;5057691;28;1194;-75
2023/04/22 11:17:18;;;;;;;;;;;;;;;17.00;72.55;100484.16;5062379;28;1270;-75
2023/04/22 11:19:43;;;;;;;;;;;;;;;16.98;72.38;100476.50;5056403;28;1953;-74
2023/04/22 11:22:09;;;;;;;;;;;;;;;16.94;72.05;100475.19;5071139;28;1243;-75
2023/04/22 11:24:35;;;;;;;;;;;;;;;16.89;72.45;100482.75;5066241;28;1179;-75
2023/04/22 11:27:00;;;;;;;;;;;;;;;16.87;71.93;100484.75;5062811;28;1128;-76
2023/04/22 11:29:25;;;;;;;;;;;;;;;16.82;72.61;100487.06;5061250;28;1205;-74
2023/04/22 11:31:51;;;;;;;;;;;;;;;16.81;71.92;100488.06;5069048;28;1335;-75
2023/04/22 11:34:16;;;;;;;;;;;;;;;16.61;70.99;100490.28;5062607;28;1162;-74
2023/04/22 11:36:44;;;;;;;;;;;;;;;16.51;72.22;100489.66;5060932;28;1295;-74
2023/04/22 11:39:13;;;;;;;;;;;;;;;16.40;71.15;100487.44;5072859;28;1901;-77
2023/04/22 11:41:39;;;;;;;;;;;;;;;16.35;71.45;100493.22;5060004;28;1573;-74
2023/04/22 11:44:05;;;;;;;;;;;;;;;16.29;72.42;100493.88;5066881;28;1088;-77
2023/04/22 11:46:30;;;;;;;;;;;;;;;16.21;73.15;100488.69;5060858;28;1167;-75
2023/04/22 11:49:12;;;;;;;;;;;;;;;16.16;73.74;100490.97;5066785;28;1310;-74
2023/04/22 11:51:50;;;;;;;;;;;;;;;16.08;74.70;100488.41;5065427;28;1117;-75
2023/04/22 11:54:15;;;;;;;;;;;;;;;16.02;74.91;100489.09;5064180;28;1176;-75
2023/04/22 11:56:40;;;;;;;;;;;;;;;15.96;75.14;100480.09;5064429;28;1128;-76
2023/04/22 11:59:06;;;;;;;;;;;;;;;15.95;75.22;100488.13;5059635;28;1890;-78
2023/04/22 12:01:31;;;;;;;;;;;;;;;15.89;75.46;100489.63;5060645;28;1097;-77
2023/04/22 12:04:00;;;;;;;;;;;;;;;15.93;75.52;100485.66;5060284;28;1135;-75
2023/04/22 12:06:28;;;;;;;;;;;;;;;15.76;76.50;100490.13;5059136;28;1243;-76
2023/04/22 12:08:54;;;;;;;;;;;;;;;15.67;77.06;100496.38;5061104;28;1313;-76
2023/04/22 12:11:20;;;;;;;;;;;;;;;15.55;78.21;100489.81;5062950;28;1328;-77
2023/04/22 12:13:45;;;;;;;;;;;;;;;15.46;78.95;100498.63;5066266;28;1068;-76
2023/04/22 12:16:11;;;;;;;;;;;;;;;15.40;79.89;100500.94;5062982;28;1236;-76
2023/04/22 12:18:38;;;;;;;;;;;;;;;15.34;80.39;100504.19;5056371;28;2016;-76
2023/04/22 12:21:03;;;;;;;;;;;;;;;15.20;80.66;100499.63;5070320;28;1262;-76
2023/04/22 12:23:28;;;;;;;;;;;;;;;15.15;81.15;100496.69;5059081;28;1193;-79
2023/04/22 12:25:54;;;;;;;;;;;;;;;15.13;81.71;100498.63;5077278;28;1492;-76
2023/04/22 12:28:19;;;;;;;;;;;;;;;15.09;82.01;100508.59;5062480;28;1093;-76
2023/04/22 12:30:45;;;;;;;;;;;;;;;15.08;82.75;100503.53;5060005;28;1097;-77
2023/04/22 12:33:10;;;;;;;;;;;;;;;15.07;82.70;100504.50;5064561;28;1314;-77
2023/04/22 12:35:35;;;;;;;;;;;;;;;15.05;83.09;100503.88;5056342;28;1263;-76
2023/04/22 12:38:01;;;;;;;;;;;;;;;15.06;83.74;100500.28;5064852;28;1975;-76
2023/04/22 12:40:26;;;;;;;;;;;;;;;15.06;83.33;100497.66;5058171;28;1615;-76
2023/04/22 12:42:51;;;;;;;;;;;;;;;15.03;83.72;100503.22;5063015;28;1500;-76
2023/04/22 12:45:17;;;;;;;;;;;;;;;15.01;84.12;100505.16;5055699;28;1107;-76
2023/04/22 12:47:42;;;;;;;;;;;;;;;15.00;83.88;100500.91;5063883;28;1481;-75